Archival Weather

Rochelle Muni/Koritz Fld

Rochelle, Illinois (KRPJ)

Report from: Sunday, February 5, 2023 6:15 AM CST
Current time: Tuesday, February 27, 2024 3:43 AM CST

Current weather – Weather history – Daily summaries
Weather forecast

Temperature-2.6°C (27.3°F)
Wind chill-6.7°C (19.9°F)
Dew point-3.2°C (26.2°F)
Winds 6 kts (3.1 m/s, 6.9 mph) South-Southwest (200°)
Visibility10 mi. (16.1 km)
Clouds Sky clear
Altimeter29.85 in.Hg (1011 mB)
Relative humidity96 %
Density altitude-2,006 ft. (-612 m)
Remarks Fully automated report
Automated weather observing station with precipitation discriminator
Lightning detection system not operating
Flight conditions Visual Meteorological Conditions
Raw dataKRPJ 051215Z AUTO 20006KT 10SM CLR M03/M03 A2985 RMK AO2 T10261032 TSNO
An error has occurred. This application may no longer respond until reloaded. Reload 🗙